createdAt,value
2022-12-29T00:57:30.779Z,11.40
2022-12-29T01:42:58.681Z,11.40
2022-12-29T02:11:47.092Z,11.40
2022-12-29T02:33:54.328Z,11.30
2022-12-29T02:37:48.852Z,11.40
2022-12-29T03:05:30.274Z,11.40
2022-12-29T03:09:03.580Z,11.50
2022-12-29T03:43:55.516Z,11.50
2022-12-29T03:47:43.058Z,11.50
2022-12-29T03:51:06.540Z,11.50
2022-12-29T03:54:11.914Z,11.50
2022-12-29T03:57:16.554Z,11.50
2022-12-29T04:00:20.100Z,11.50
2022-12-29T04:03:24.855Z,11.50
2022-12-29T04:06:26.889Z,11.60
2022-12-29T04:09:28.780Z,11.60
2022-12-29T04:12:30.748Z,11.60
2022-12-29T04:15:35.735Z,11.60
2022-12-29T04:28:46.880Z,11.60
2022-12-29T04:31:48.841Z,11.60
2022-12-29T04:35:10.935Z,11.60
2022-12-29T04:38:12.884Z,11.60
2022-12-29T04:41:14.835Z,11.60
2022-12-29T04:44:19.879Z,11.60
2022-12-29T04:47:21.665Z,11.60
2022-12-29T04:50:24.030Z,11.70
2022-12-29T04:53:25.838Z,11.60
2022-12-29T04:56:30.678Z,11.60
2022-12-29T04:59:32.410Z,11.60
2022-12-29T05:02:49.626Z,11.60
2022-12-29T05:06:04.147Z,11.50
2022-12-29T05:30:32.169Z,11.50
2022-12-29T05:33:33.893Z,11.40
2022-12-29T05:36:38.415Z,11.40
2022-12-29T05:39:40.345Z,11.40
2022-12-29T05:42:42.312Z,11.30
2022-12-29T05:45:53.716Z,11.30
2022-12-29T05:48:55.707Z,11.30
2022-12-29T05:51:57.473Z,11.30
2022-12-29T05:54:59.205Z,11.30
2022-12-29T05:58:00.942Z,11.30
2022-12-29T06:01:02.864Z,11.30
2022-12-29T06:04:10.829Z,11.30
2022-12-29T06:07:18.684Z,11.30
2022-12-29T06:10:26.459Z,11.30
2022-12-29T06:16:44.516Z,11.30
2022-12-29T06:19:52.777Z,11.30
2022-12-29T06:22:57.578Z,11.30
2022-12-29T06:25:59.343Z,11.30
2022-12-29T06:36:54.937Z,11.20
2022-12-29T06:39:55.025Z,11.20
2022-12-29T06:42:59.736Z,11.20
2022-12-29T06:46:19.697Z,11.10
2022-12-29T06:49:41.578Z,11.10
2022-12-29T06:56:05.535Z,11.10
2022-12-29T07:02:50.238Z,11.00
2022-12-29T07:06:32.178Z,11.10
2022-12-29T07:09:40.918Z,11.00
2022-12-29T07:12:42.832Z,11.00
2022-12-29T07:19:00.611Z,11.00
2022-12-29T07:22:07.926Z,11.00
2022-12-29T07:28:26.909Z,11.00
2022-12-29T07:31:33.662Z,11.00
2022-12-29T07:34:36.007Z,11.10
2022-12-29T07:40:58.251Z,10.90
2022-12-29T07:44:06.008Z,10.80
2022-12-29T07:48:12.145Z,10.70
2022-12-29T07:55:26.620Z,10.70
2022-12-29T08:18:35.028Z,10.90
2022-12-29T08:21:50.197Z,10.80
2022-12-29T08:24:52.509Z,10.80
2022-12-29T08:27:54.212Z,10.80
2022-12-29T08:30:58.347Z,10.80
2022-12-29T08:37:26.286Z,10.80
2022-12-29T08:41:05.119Z,10.80
2022-12-29T08:44:24.037Z,10.80
2022-12-29T08:50:56.212Z,10.90
2022-12-29T08:58:04.383Z,10.90
2022-12-29T09:01:50.324Z,11.00
2022-12-29T09:09:40.236Z,11.10
2022-12-29T09:16:08.914Z,11.10
2022-12-29T09:22:47.595Z,11.00
2022-12-29T09:29:48.636Z,11.00
2022-12-29T09:54:58.051Z,11.00
2022-12-29T10:14:09.569Z,11.10
2022-12-29T10:17:14.446Z,11.10
2022-12-29T10:20:16.653Z,11.10
2022-12-29T10:27:02.458Z,11.20
2022-12-29T10:30:18.554Z,11.20
2022-12-29T10:33:45.799Z,11.30
2022-12-29T10:37:14.252Z,11.30
2022-12-29T10:41:00.847Z,11.30
2022-12-29T11:03:19.574Z,11.30
2022-12-29T11:19:43.390Z,11.30
2022-12-29T11:22:46.129Z,11.30
2022-12-29T11:26:33.578Z,11.20
2022-12-29T11:30:05.901Z,11.30
2022-12-29T11:34:01.152Z,11.30
2022-12-29T11:44:26.051Z,11.40
2022-12-29T11:48:00.974Z,11.40
2022-12-29T11:51:02.960Z,11.40
2022-12-29T11:54:10.469Z,11.40
2022-12-29T11:57:28.279Z,11.40
2022-12-29T12:00:32.493Z,11.40
2022-12-29T12:03:36.408Z,11.40
2022-12-29T12:11:10.672Z,11.30
2022-12-29T12:14:18.894Z,11.30
2022-12-29T12:17:39.579Z,11.30
2022-12-29T12:20:52.891Z,11.20
2022-12-29T12:24:14.602Z,11.30
2022-12-29T12:30:48.780Z,11.30
2022-12-29T12:33:54.706Z,11.30
2022-12-29T12:37:18.314Z,11.20
2022-12-29T12:40:32.212Z,11.30
2022-12-29T12:43:37.995Z,11.20
2022-12-29T12:46:51.958Z,11.30
2022-12-29T12:49:53.615Z,11.20
2022-12-29T12:53:02.549Z,11.30
2022-12-29T12:56:19.361Z,11.20
2022-12-29T12:59:21.033Z,11.20
2022-12-29T13:02:42.149Z,11.20
2022-12-29T13:05:59.471Z,11.20
2022-12-29T13:09:10.279Z,11.20
2022-12-29T13:12:33.785Z,11.20
2022-12-29T13:16:14.657Z,11.20
2022-12-29T13:19:34.820Z,11.10
2022-12-29T13:22:50.106Z,11.20
2022-12-29T13:25:56.041Z,11.20
2022-12-29T13:29:06.370Z,11.10
2022-12-29T13:32:28.284Z,11.10
2022-12-29T13:35:54.919Z,11.10
2022-12-29T13:39:03.510Z,11.10
2022-12-29T13:42:06.418Z,11.10
2022-12-29T13:45:13.513Z,11.00
2022-12-29T13:48:20.703Z,11.10
2022-12-29T13:51:27.693Z,11.00
2022-12-29T13:54:33.179Z,11.00
2022-12-29T13:57:55.322Z,11.00
2022-12-29T14:01:09.939Z,11.00
2022-12-29T14:04:15.699Z,11.00
2022-12-29T14:07:18.566Z,11.00
2022-12-29T14:10:26.131Z,11.00
2022-12-29T14:13:28.021Z,11.00
2022-12-29T14:16:34.580Z,11.00
2022-12-29T14:19:39.279Z,11.10
2022-12-29T14:22:56.088Z,11.10
2022-12-29T14:25:57.784Z,11.00
2022-12-29T14:29:37.793Z,11.00
2022-12-29T14:32:39.565Z,11.00
2022-12-29T14:35:42.264Z,11.00
2022-12-29T14:38:47.658Z,11.00
2022-12-29T14:41:49.363Z,10.90
2022-12-29T14:45:02.997Z,11.00
2022-12-29T14:48:21.907Z,11.00
2022-12-29T14:51:35.430Z,10.90
2022-12-29T14:54:37.289Z,10.90
2022-12-29T14:57:41.908Z,10.80
2022-12-29T15:00:43.978Z,10.80
2022-12-29T15:03:47.027Z,10.80
2022-12-29T15:06:50.181Z,10.80
2022-12-29T15:09:55.104Z,10.70
2022-12-29T15:13:03.395Z,10.70
2022-12-29T15:16:26.850Z,10.60
2022-12-29T15:19:29.881Z,10.60
2022-12-29T15:22:44.422Z,10.60
2022-12-29T15:32:30.877Z,10.50
2022-12-29T15:38:52.572Z,10.50
2022-12-29T15:42:41.775Z,10.40
2022-12-29T15:45:43.791Z,10.40
2022-12-29T15:48:45.645Z,10.40
2022-12-29T15:51:47.481Z,10.40
2022-12-29T15:54:50.453Z,10.40
2022-12-29T15:57:56.479Z,10.40
2022-12-29T16:00:59.853Z,10.40
2022-12-29T16:04:05.463Z,10.40
2022-12-29T16:07:09.132Z,10.30
2022-12-29T16:10:30.095Z,10.30
2022-12-29T16:13:39.882Z,10.30
2022-12-29T16:16:43.258Z,10.30
2022-12-29T16:19:49.141Z,10.30
2022-12-29T16:22:55.712Z,10.20
2022-12-29T16:25:58.745Z,10.20
2022-12-29T16:29:01.728Z,10.20
2022-12-29T16:32:04.359Z,10.20
2022-12-29T16:35:17.407Z,10.30
2022-12-29T16:38:22.383Z,10.20
2022-12-29T16:41:30.884Z,10.30
2022-12-29T16:44:32.898Z,10.20
2022-12-29T16:47:41.309Z,10.20
2022-12-29T16:51:31.400Z,10.20
2022-12-29T16:54:39.319Z,10.20
2022-12-29T16:57:43.803Z,10.10
2022-12-29T17:00:46.072Z,10.00
2022-12-29T17:03:57.939Z,10.00
2022-12-29T17:10:15.991Z,9.90
2022-12-29T17:13:18.512Z,9.80
2022-12-29T17:16:20.469Z,9.80
2022-12-29T17:19:27.722Z,9.70
2022-12-29T17:22:30.181Z,9.70
2022-12-29T17:25:38.421Z,9.70
2022-12-29T17:28:40.257Z,9.70
2022-12-29T17:31:48.160Z,9.60
2022-12-29T17:34:58.652Z,9.60
2022-12-29T17:38:01.014Z,9.60
2022-12-29T17:41:03.041Z,9.50
2022-12-29T17:44:05.992Z,9.50
2022-12-29T17:47:09.317Z,9.50
2022-12-29T17:50:27.487Z,9.40
2022-12-29T17:53:29.945Z,9.50
2022-12-29T17:56:31.704Z,9.40
2022-12-29T17:59:33.645Z,9.40
2022-12-29T18:02:35.481Z,9.40
2022-12-29T18:05:37.468Z,9.30
2022-12-29T18:08:39.696Z,9.30
2022-12-29T18:11:43.032Z,9.30
2022-12-29T18:14:45.773Z,9.20
